sensor_id;sensor_type;location;lat;lon;timestamp;P1;durP1;ratioP1;P2;durP2;ratioP2
24096;SDS011;12275;48.550;12.132;2023-05-07T00:00:01;6.22;;;4.10;;
24096;SDS011;12275;48.550;12.132;2023-05-07T00:02:28;4.32;;;3.92;;
24096;SDS011;12275;48.550;12.132;2023-05-07T00:04:54;6.65;;;4.72;;
24096;SDS011;12275;48.550;12.132;2023-05-07T00:07:20;10.45;;;4.30;;
24096;SDS011;12275;48.550;12.132;2023-05-07T00:09:46;5.22;;;4.07;;
24096;SDS011;12275;48.550;12.132;2023-05-07T00:12:12;3.60;;;3.30;;
24096;SDS011;12275;48.550;12.132;2023-05-07T00:14:38;7.45;;;3.75;;
24096;SDS011;12275;48.550;12.132;2023-05-07T00:17:04;5.35;;;3.80;;
24096;SDS011;12275;48.550;12.132;2023-05-07T00:19:30;6.20;;;3.72;;
24096;SDS011;12275;48.550;12.132;2023-05-07T00:21:56;9.05;;;3.65;;
24096;SDS011;12275;48.550;12.132;2023-05-07T00:24:23;5.45;;;3.97;;
24096;SDS011;12275;48.550;12.132;2023-05-07T00:26:49;6.07;;;4.00;;
24096;SDS011;12275;48.550;12.132;2023-05-07T00:29:16;4.65;;;4.25;;
24096;SDS011;12275;48.550;12.132;2023-05-07T00:31:41;6.13;;;4.20;;
24096;SDS011;12275;48.550;12.132;2023-05-07T00:34:08;5.15;;;4.38;;
24096;SDS011;12275;48.550;12.132;2023-05-07T00:36:34;5.93;;;4.63;;
24096;SDS011;12275;48.550;12.132;2023-05-07T00:39:00;5.43;;;4.28;;
24096;SDS011;12275;48.550;12.132;2023-05-07T00:41:28;7.60;;;4.20;;
24096;SDS011;12275;48.550;12.132;2023-05-07T00:43:55;7.10;;;4.25;;
24096;SDS011;12275;48.550;12.132;2023-05-07T00:46:21;4.50;;;4.10;;
24096;SDS011;12275;48.550;12.132;2023-05-07T00:48:48;7.70;;;4.10;;
24096;SDS011;12275;48.550;12.132;2023-05-07T00:51:15;7.50;;;4.50;;
24096;SDS011;12275;48.550;12.132;2023-05-07T00:53:41;8.98;;;3.97;;
24096;SDS011;12275;48.550;12.132;2023-05-07T00:56:07;5.10;;;4.20;;
24096;SDS011;12275;48.550;12.132;2023-05-07T00:58:33;6.97;;;3.70;;
24096;SDS011;12275;48.550;12.132;2023-05-07T01:01:00;4.50;;;3.47;;
24096;SDS011;12275;48.550;12.132;2023-05-07T01:03:26;10.23;;;3.80;;
24096;SDS011;12275;48.550;12.132;2023-05-07T01:05:52;5.03;;;3.72;;
24096;SDS011;12275;48.550;12.132;2023-05-07T01:08:19;5.00;;;3.55;;
24096;SDS011;12275;48.550;12.132;2023-05-07T01:10:46;9.60;;;4.22;;
24096;SDS011;12275;48.550;12.132;2023-05-07T01:13:12;6.35;;;3.47;;
24096;SDS011;12275;48.550;12.132;2023-05-07T01:15:39;8.80;;;3.67;;
24096;SDS011;12275;48.550;12.132;2023-05-07T01:18:08;8.55;;;3.65;;
24096;SDS011;12275;48.550;12.132;2023-05-07T01:20:34;7.03;;;3.17;;
24096;SDS011;12275;48.550;12.132;2023-05-07T01:23:00;3.75;;;3.30;;
24096;SDS011;12275;48.550;12.132;2023-05-07T01:25:26;4.63;;;3.17;;
24096;SDS011;12275;48.550;12.132;2023-05-07T01:27:52;3.17;;;2.97;;
24096;SDS011;12275;48.550;12.132;2023-05-07T01:30:18;3.13;;;2.80;;
24096;SDS011;12275;48.550;12.132;2023-05-07T01:32:53;7.60;;;3.35;;
24096;SDS011;12275;48.550;12.132;2023-05-07T01:35:23;3.42;;;3.05;;
24096;SDS011;12275;48.550;12.132;2023-05-07T01:37:50;3.83;;;2.72;;
24096;SDS011;12275;48.550;12.132;2023-05-07T01:40:16;3.60;;;3.30;;
24096;SDS011;12275;48.550;12.132;2023-05-07T01:42:43;3.45;;;3.15;;
24096;SDS011;12275;48.550;12.132;2023-05-07T01:45:09;7.00;;;3.20;;
24096;SDS011;12275;48.550;12.132;2023-05-07T01:47:38;3.03;;;2.83;;
24096;SDS011;12275;48.550;12.132;2023-05-07T01:50:05;3.80;;;3.50;;
24096;SDS011;12275;48.550;12.132;2023-05-07T01:52:32;5.55;;;3.15;;
24096;SDS011;12275;48.550;12.132;2023-05-07T01:54:59;3.53;;;3.22;;
24096;SDS011;12275;48.550;12.132;2023-05-07T01:57:25;4.80;;;3.80;;
24096;SDS011;12275;48.550;12.132;2023-05-07T01:59:51;4.93;;;3.60;;
24096;SDS011;12275;48.550;12.132;2023-05-07T02:02:17;9.13;;;3.50;;
24096;SDS011;12275;48.550;12.132;2023-05-07T02:04:43;4.70;;;3.27;;
24096;SDS011;12275;48.550;12.132;2023-05-07T02:07:09;4.67;;;4.10;;
24096;SDS011;12275;48.550;12.132;2023-05-07T02:09:35;6.67;;;3.37;;
24096;SDS011;12275;48.550;12.132;2023-05-07T02:12:01;3.40;;;3.10;;
24096;SDS011;12275;48.550;12.132;2023-05-07T02:14:27;3.85;;;3.55;;
24096;SDS011;12275;48.550;12.132;2023-05-07T02:16:53;3.20;;;3.00;;
24096;SDS011;12275;48.550;12.132;2023-05-07T02:19:19;3.65;;;2.95;;
24096;SDS011;12275;48.550;12.132;2023-05-07T02:21:46;3.67;;;3.30;;
24096;SDS011;12275;48.550;12.132;2023-05-07T02:24:12;5.65;;;3.38;;
24096;SDS011;12275;48.550;12.132;2023-05-07T02:26:39;4.93;;;3.83;;
24096;SDS011;12275;48.550;12.132;2023-05-07T02:29:06;3.67;;;3.23;;
24096;SDS011;12275;48.550;12.132;2023-05-07T02:31:32;6.95;;;3.35;;
24096;SDS011;12275;48.550;12.132;2023-05-07T02:33:59;6.30;;;3.43;;
24096;SDS011;12275;48.550;12.132;2023-05-07T02:36:25;6.05;;;3.38;;
24096;SDS011;12275;48.550;12.132;2023-05-07T02:38:51;8.57;;;3.30;;
24096;SDS011;12275;48.550;12.132;2023-05-07T02:41:17;8.10;;;3.60;;
24096;SDS011;12275;48.550;12.132;2023-05-07T02:43:43;4.40;;;3.17;;
24096;SDS011;12275;48.550;12.132;2023-05-07T02:46:09;5.00;;;3.40;;
24096;SDS011;12275;48.550;12.132;2023-05-07T02:48:35;5.43;;;3.30;;
24096;SDS011;12275;48.550;12.132;2023-05-07T02:51:02;3.47;;;3.17;;
24096;SDS011;12275;48.550;12.132;2023-05-07T02:53:28;3.53;;;3.23;;
24096;SDS011;12275;48.550;12.132;2023-05-07T02:55:57;4.00;;;3.60;;
24096;SDS011;12275;48.550;12.132;2023-05-07T02:58:23;5.57;;;4.07;;
24096;SDS011;12275;48.550;12.132;2023-05-07T03:00:49;3.50;;;3.30;;
24096;SDS011;12275;48.550;12.132;2023-05-07T03:03:16;3.73;;;3.43;;
24096;SDS011;12275;48.550;12.132;2023-05-07T03:05:42;3.67;;;3.37;;
24096;SDS011;12275;48.550;12.132;2023-05-07T03:08:08;4.70;;;3.47;;
24096;SDS011;12275;48.550;12.132;2023-05-07T03:10:34;3.97;;;3.43;;
24096;SDS011;12275;48.550;12.132;2023-05-07T03:13:01;3.60;;;3.40;;
24096;SDS011;12275;48.550;12.132;2023-05-07T03:15:27;7.77;;;3.60;;
24096;SDS011;12275;48.550;12.132;2023-05-07T03:17:53;4.87;;;3.93;;
24096;SDS011;12275;48.550;12.132;2023-05-07T03:20:19;3.87;;;3.47;;
24096;SDS011;12275;48.550;12.132;2023-05-07T03:22:45;4.47;;;4.03;;
24096;SDS011;12275;48.550;12.132;2023-05-07T03:25:11;8.10;;;3.43;;
24096;SDS011;12275;48.550;12.132;2023-05-07T03:27:39;11.77;;;3.73;;
24096;SDS011;12275;48.550;12.132;2023-05-07T03:30:06;5.93;;;3.60;;
24096;SDS011;12275;48.550;12.132;2023-05-07T03:32:33;8.33;;;3.80;;
24096;SDS011;12275;48.550;12.132;2023-05-07T03:35:00;4.70;;;4.20;;
24096;SDS011;12275;48.550;12.132;2023-05-07T03:37:26;7.30;;;3.70;;
24096;SDS011;12275;48.550;12.132;2023-05-07T03:39:52;6.30;;;4.00;;
24096;SDS011;12275;48.550;12.132;2023-05-07T03:42:19;4.23;;;3.80;;
24096;SDS011;12275;48.550;12.132;2023-05-07T03:44:45;6.43;;;3.80;;
24096;SDS011;12275;48.550;12.132;2023-05-07T03:47:11;9.63;;;3.77;;
24096;SDS011;12275;48.550;12.132;2023-05-07T03:49:38;4.00;;;3.60;;
24096;SDS011;12275;48.550;12.132;2023-05-07T03:52:04;6.03;;;3.70;;
24096;SDS011;12275;48.550;12.132;2023-05-07T03:54:30;4.50;;;4.10;;
24096;SDS011;12275;48.550;12.132;2023-05-07T03:56:56;4.53;;;4.00;;
24096;SDS011;12275;48.550;12.132;2023-05-07T03:59:22;6.90;;;3.97;;
24096;SDS011;12275;48.550;12.132;2023-05-07T04:01:48;7.47;;;4.00;;
24096;SDS011;12275;48.550;12.132;2023-05-07T04:04:14;7.00;;;4.20;;
24096;SDS011;12275;48.550;12.132;2023-05-07T04:06:41;13.40;;;3.77;;
24096;SDS011;12275;48.550;12.132;2023-05-07T04:09:07;4.57;;;4.07;;
24096;SDS011;12275;48.550;12.132;2023-05-07T04:11:33;4.20;;;3.90;;
24096;SDS011;12275;48.550;12.132;2023-05-07T04:13:59;8.43;;;4.00;;
24096;SDS011;12275;48.550;12.132;2023-05-07T04:16:25;4.50;;;3.83;;
24096;SDS011;12275;48.550;12.132;2023-05-07T04:18:51;6.00;;;3.77;;
24096;SDS011;12275;48.550;12.132;2023-05-07T04:21:18;6.80;;;3.93;;
24096;SDS011;12275;48.550;12.132;2023-05-07T04:23:45;6.70;;;4.40;;
24096;SDS011;12275;48.550;12.132;2023-05-07T04:26:11;5.17;;;4.37;;
24096;SDS011;12275;48.550;12.132;2023-05-07T04:28:37;5.67;;;4.20;;
24096;SDS011;12275;48.550;12.132;2023-05-07T04:31:04;5.47;;;4.27;;
24096;SDS011;12275;48.550;12.132;2023-05-07T04:33:31;4.63;;;4.23;;
24096;SDS011;12275;48.550;12.132;2023-05-07T04:35:57;5.90;;;3.97;;
24096;SDS011;12275;48.550;12.132;2023-05-07T04:38:27;5.13;;;4.47;;
24096;SDS011;12275;48.550;12.132;2023-05-07T04:40:53;5.27;;;4.70;;
24096;SDS011;12275;48.550;12.132;2023-05-07T04:43:19;4.90;;;4.50;;
24096;SDS011;12275;48.550;12.132;2023-05-07T04:45:46;4.90;;;4.50;;
24096;SDS011;12275;48.550;12.132;2023-05-07T04:48:14;7.53;;;4.00;;
24096;SDS011;12275;48.550;12.132;2023-05-07T04:50:40;5.77;;;4.50;;
24096;SDS011;12275;48.550;12.132;2023-05-07T04:53:06;5.47;;;4.43;;
24096;SDS011;12275;48.550;12.132;2023-05-07T04:55:32;6.37;;;4.30;;
24096;SDS011;12275;48.550;12.132;2023-05-07T04:57:58;4.33;;;3.93;;
24096;SDS011;12275;48.550;12.132;2023-05-07T05:00:26;4.55;;;4.22;;
24096;SDS011;12275;48.550;12.132;2023-05-07T05:02:52;4.97;;;4.23;;
24096;SDS011;12275;48.550;12.132;2023-05-07T05:05:18;6.40;;;4.57;;
24096;SDS011;12275;48.550;12.132;2023-05-07T05:07:44;9.93;;;4.95;;
24096;SDS011;12275;48.550;12.132;2023-05-07T05:10:10;6.40;;;5.10;;
24096;SDS011;12275;48.550;12.132;2023-05-07T05:12:36;7.07;;;4.57;;
24096;SDS011;12275;48.550;12.132;2023-05-07T05:15:03;4.82;;;4.18;;
24096;SDS011;12275;48.550;12.132;2023-05-07T05:17:29;7.25;;;4.80;;
24096;SDS011;12275;48.550;12.132;2023-05-07T05:19:55;5.07;;;4.10;;
24096;SDS011;12275;48.550;12.132;2023-05-07T05:22:21;5.93;;;4.50;;
24096;SDS011;12275;48.550;12.132;2023-05-07T05:24:47;4.57;;;4.18;;
24096;SDS011;12275;48.550;12.132;2023-05-07T05:27:13;7.82;;;5.60;;
24096;SDS011;12275;48.550;12.132;2023-05-07T05:29:39;4.85;;;4.45;;
24096;SDS011;12275;48.550;12.132;2023-05-07T05:32:05;5.95;;;4.55;;
24096;SDS011;12275;48.550;12.132;2023-05-07T05:34:31;5.22;;;4.80;;
24096;SDS011;12275;48.550;12.132;2023-05-07T05:36:58;5.65;;;5.10;;
24096;SDS011;12275;48.550;12.132;2023-05-07T05:39:24;9.50;;;5.30;;
24096;SDS011;12275;48.550;12.132;2023-05-07T05:41:50;7.00;;;4.75;;
24096;SDS011;12275;48.550;12.132;2023-05-07T05:44:16;5.53;;;5.00;;
24096;SDS011;12275;48.550;12.132;2023-05-07T05:46:42;7.72;;;5.15;;
24096;SDS011;12275;48.550;12.132;2023-05-07T05:49:08;6.53;;;4.85;;
24096;SDS011;12275;48.550;12.132;2023-05-07T05:51:34;6.38;;;5.07;;
24096;SDS011;12275;48.550;12.132;2023-05-07T05:54:00;7.13;;;4.93;;
24096;SDS011;12275;48.550;12.132;2023-05-07T05:56:26;5.65;;;5.13;;
24096;SDS011;12275;48.550;12.132;2023-05-07T05:58:52;6.15;;;5.55;;
24096;SDS011;12275;48.550;12.132;2023-05-07T06:01:18;7.28;;;5.20;;
24096;SDS011;12275;48.550;12.132;2023-05-07T06:03:45;6.00;;;5.35;;
24096;SDS011;12275;48.550;12.132;2023-05-07T06:06:11;6.68;;;5.53;;
24096;SDS011;12275;48.550;12.132;2023-05-07T06:08:37;5.65;;;4.72;;
24096;SDS011;12275;48.550;12.132;2023-05-07T06:11:03;5.68;;;4.97;;
24096;SDS011;12275;48.550;12.132;2023-05-07T06:13:29;7.65;;;5.20;;
24096;SDS011;12275;48.550;12.132;2023-05-07T06:15:55;5.55;;;4.80;;
24096;SDS011;12275;48.550;12.132;2023-05-07T06:18:21;7.93;;;5.00;;
24096;SDS011;12275;48.550;12.132;2023-05-07T06:20:47;7.10;;;4.68;;
24096;SDS011;12275;48.550;12.132;2023-05-07T06:23:14;7.45;;;4.45;;
24096;SDS011;12275;48.550;12.132;2023-05-07T06:25:40;4.78;;;4.35;;
24096;SDS011;12275;48.550;12.132;2023-05-07T06:28:06;5.43;;;4.13;;
24096;SDS011;12275;48.550;12.132;2023-05-07T06:33:00;4.75;;;4.32;;
24096;SDS011;12275;48.550;12.132;2023-05-07T06:35:26;4.80;;;4.40;;
24096;SDS011;12275;48.550;12.132;2023-05-07T06:37:52;5.47;;;4.97;;
24096;SDS011;12275;48.550;12.132;2023-05-07T06:40:18;4.68;;;3.88;;
24096;SDS011;12275;48.550;12.132;2023-05-07T06:42:44;8.30;;;6.53;;
24096;SDS011;12275;48.550;12.132;2023-05-07T06:45:10;5.75;;;4.95;;
24096;SDS011;12275;48.550;12.132;2023-05-07T06:47:36;4.65;;;4.25;;
24096;SDS011;12275;48.550;12.132;2023-05-07T06:50:02;4.00;;;3.80;;
24096;SDS011;12275;48.550;12.132;2023-05-07T06:52:28;12.27;;;4.22;;
24096;SDS011;12275;48.550;12.132;2023-05-07T06:54:54;4.75;;;3.83;;
24096;SDS011;12275;48.550;12.132;2023-05-07T06:57:20;4.35;;;3.95;;
24096;SDS011;12275;48.550;12.132;2023-05-07T06:59:46;4.85;;;4.45;;
24096;SDS011;12275;48.550;12.132;2023-05-07T07:02:12;6.47;;;4.22;;
24096;SDS011;12275;48.550;12.132;2023-05-07T07:04:38;9.07;;;4.55;;
24096;SDS011;12275;48.550;12.132;2023-05-07T07:07:05;4.60;;;4.30;;
24096;SDS011;12275;48.550;12.132;2023-05-07T07:09:31;5.15;;;4.63;;
24096;SDS011;12275;48.550;12.132;2023-05-07T07:11:57;8.13;;;4.40;;
24096;SDS011;12275;48.550;12.132;2023-05-07T07:14:23;4.70;;;4.30;;
24096;SDS011;12275;48.550;12.132;2023-05-07T07:16:49;4.13;;;3.80;;
24096;SDS011;12275;48.550;12.132;2023-05-07T07:19:15;4.72;;;4.38;;
24096;SDS011;12275;48.550;12.132;2023-05-07T07:21:41;6.95;;;4.90;;
24096;SDS011;12275;48.550;12.132;2023-05-07T07:24:08;9.90;;;6.30;;
24096;SDS011;12275;48.550;12.132;2023-05-07T07:26:34;4.90;;;4.50;;
24096;SDS011;12275;48.550;12.132;2023-05-07T07:29:00;5.18;;;4.68;;
24096;SDS011;12275;48.550;12.132;2023-05-07T07:31:26;6.70;;;5.00;;
24096;SDS011;12275;48.550;12.132;2023-05-07T07:36:18;5.32;;;4.90;;
24096;SDS011;12275;48.550;12.132;2023-05-07T07:38:44;6.53;;;5.68;;
24096;SDS011;12275;48.550;12.132;2023-05-07T07:41:10;6.63;;;4.88;;
24096;SDS011;12275;48.550;12.132;2023-05-07T07:43:36;6.57;;;5.22;;
24096;SDS011;12275;48.550;12.132;2023-05-07T07:46:02;7.97;;;6.70;;
24096;SDS011;12275;48.550;12.132;2023-05-07T07:48:28;6.40;;;5.57;;
24096;SDS011;12275;48.550;12.132;2023-05-07T07:50:54;6.80;;;6.20;;
24096;SDS011;12275;48.550;12.132;2023-05-07T07:53:20;8.32;;;5.35;;
24096;SDS011;12275;48.550;12.132;2023-05-07T07:55:46;6.07;;;5.60;;
24096;SDS011;12275;48.550;12.132;2023-05-07T07:58:12;7.43;;;5.95;;
24096;SDS011;12275;48.550;12.132;2023-05-07T08:00:38;7.07;;;6.07;;
24096;SDS011;12275;48.550;12.132;2023-05-07T08:03:04;6.55;;;5.95;;
24096;SDS011;12275;48.550;12.132;2023-05-07T08:05:32;6.70;;;5.88;;
24096;SDS011;12275;48.550;12.132;2023-05-07T08:07:58;5.85;;;5.38;;
24096;SDS011;12275;48.550;12.132;2023-05-07T08:10:24;7.10;;;6.50;;
24096;SDS011;12275;48.550;12.132;2023-05-07T08:12:50;7.40;;;6.70;;
24096;SDS011;12275;48.550;12.132;2023-05-07T08:15:16;6.18;;;5.55;;
24096;SDS011;12275;48.550;12.132;2023-05-07T08:17:43;7.28;;;6.35;;
24096;SDS011;12275;48.550;12.132;2023-05-07T08:20:09;8.23;;;6.35;;
24096;SDS011;12275;48.550;12.132;2023-05-07T08:22:35;9.93;;;7.90;;
24096;SDS011;12275;48.550;12.132;2023-05-07T08:25:02;9.20;;;6.45;;
24096;SDS011;12275;48.550;12.132;2023-05-07T08:27:28;8.18;;;7.07;;
24096;SDS011;12275;48.550;12.132;2023-05-07T08:29:54;7.28;;;6.68;;
24096;SDS011;12275;48.550;12.132;2023-05-07T08:32:20;7.65;;;6.00;;
24096;SDS011;12275;48.550;12.132;2023-05-07T08:34:47;29.52;;;7.40;;
24096;SDS011;12275;48.550;12.132;2023-05-07T08:37:13;42.25;;;6.80;;
24096;SDS011;12275;48.550;12.132;2023-05-07T08:39:39;13.00;;;6.97;;
24096;SDS011;12275;48.550;12.132;2023-05-07T08:42:05;20.75;;;6.72;;
24096;SDS011;12275;48.550;12.132;2023-05-07T08:46:58;12.75;;;7.30;;
24096;SDS011;12275;48.550;12.132;2023-05-07T08:49:25;14.80;;;6.25;;
24096;SDS011;12275;48.550;12.132;2023-05-07T08:51:51;11.38;;;6.68;;
24096;SDS011;12275;48.550;12.132;2023-05-07T08:56:44;21.30;;;6.70;;
24096;SDS011;12275;48.550;12.132;2023-05-07T08:59:10;9.43;;;6.28;;
24096;SDS011;12275;48.550;12.132;2023-05-07T09:01:36;7.22;;;6.20;;
24096;SDS011;12275;48.550;12.132;2023-05-07T09:04:03;13.65;;;8.40;;
24096;SDS011;12275;48.550;12.132;2023-05-07T09:06:30;14.57;;;9.25;;
24096;SDS011;12275;48.550;12.132;2023-05-07T09:08:56;29.45;;;6.75;;
24096;SDS011;12275;48.550;12.132;2023-05-07T09:11:23;18.27;;;6.97;;
24096;SDS011;12275;48.550;12.132;2023-05-07T09:13:56;9.20;;;6.70;;
24096;SDS011;12275;48.550;12.132;2023-05-07T09:16:23;33.85;;;6.95;;
24096;SDS011;12275;48.550;12.132;2023-05-07T09:18:52;8.00;;;6.63;;
24096;SDS011;12275;48.550;12.132;2023-05-07T09:21:19;11.75;;;6.40;;
24096;SDS011;12275;48.550;12.132;2023-05-07T09:23:47;8.75;;;6.72;;
24096;SDS011;12275;48.550;12.132;2023-05-07T09:26:13;9.05;;;6.28;;
24096;SDS011;12275;48.550;12.132;2023-05-07T09:28:42;9.27;;;6.13;;
24096;SDS011;12275;48.550;12.132;2023-05-07T09:31:09;9.63;;;6.63;;
24096;SDS011;12275;48.550;12.132;2023-05-07T09:33:35;11.75;;;5.90;;
24096;SDS011;12275;48.550;12.132;2023-05-07T09:36:05;13.10;;;6.57;;
24096;SDS011;12275;48.550;12.132;2023-05-07T09:38:34;6.45;;;5.85;;
24096;SDS011;12275;48.550;12.132;2023-05-07T09:41:12;6.20;;;5.60;;
24096;SDS011;12275;48.550;12.132;2023-05-07T09:43:39;7.40;;;5.45;;
24096;SDS011;12275;48.550;12.132;2023-05-07T09:46:14;6.88;;;5.18;;
24096;SDS011;12275;48.550;12.132;2023-05-07T09:48:42;14.93;;;5.93;;
24096;SDS011;12275;48.550;12.132;2023-05-07T09:51:15;8.88;;;5.50;;
24096;SDS011;12275;48.550;12.132;2023-05-07T09:53:43;7.47;;;5.95;;
24096;SDS011;12275;48.550;12.132;2023-05-07T09:56:11;9.55;;;5.90;;
24096;SDS011;12275;48.550;12.132;2023-05-07T09:58:37;6.82;;;5.28;;
24096;SDS011;12275;48.550;12.132;2023-05-07T10:01:05;6.60;;;5.07;;
24096;SDS011;12275;48.550;12.132;2023-05-07T10:03:31;25.23;;;9.75;;
24096;SDS011;12275;48.550;12.132;2023-05-07T10:05:59;12.52;;;6.72;;
24096;SDS011;12275;48.550;12.132;2023-05-07T10:08:26;13.93;;;7.10;;
24096;SDS011;12275;48.550;12.132;2023-05-07T10:10:52;4.80;;;4.35;;
24096;SDS011;12275;48.550;12.132;2023-05-07T10:13:18;11.52;;;6.65;;
24096;SDS011;12275;48.550;12.132;2023-05-07T10:15:44;6.57;;;5.07;;
24096;SDS011;12275;48.550;12.132;2023-05-07T10:18:10;21.33;;;8.65;;
24096;SDS011;12275;48.550;12.132;2023-05-07T10:20:37;32.75;;;11.60;;
24096;SDS011;12275;48.550;12.132;2023-05-07T10:23:04;13.20;;;5.55;;
24096;SDS011;12275;48.550;12.132;2023-05-07T10:25:31;21.73;;;7.88;;
24096;SDS011;12275;48.550;12.132;2023-05-07T10:27:59;10.23;;;4.82;;
24096;SDS011;12275;48.550;12.132;2023-05-07T10:30:30;10.75;;;6.30;;
24096;SDS011;12275;48.550;12.132;2023-05-07T10:32:59;5.97;;;3.45;;
24096;SDS011;12275;48.550;12.132;2023-05-07T10:37:57;7.45;;;5.32;;
24096;SDS011;12275;48.550;12.132;2023-05-07T10:40:23;7.75;;;5.53;;
24096;SDS011;12275;48.550;12.132;2023-05-07T10:42:53;16.80;;;7.97;;
24096;SDS011;12275;48.550;12.132;2023-05-07T10:45:20;12.70;;;6.50;;
24096;SDS011;12275;48.550;12.132;2023-05-07T10:50:32;9.05;;;4.65;;
24096;SDS011;12275;48.550;12.132;2023-05-07T10:55:46;7.15;;;5.03;;
24096;SDS011;12275;48.550;12.132;2023-05-07T11:00:50;4.80;;;3.55;;
24096;SDS011;12275;48.550;12.132;2023-05-07T11:03:17;4.22;;;3.80;;
24096;SDS011;12275;48.550;12.132;2023-05-07T11:05:43;7.00;;;4.95;;
24096;SDS011;12275;48.550;12.132;2023-05-07T11:08:10;5.97;;;4.13;;
24096;SDS011;12275;48.550;12.132;2023-05-07T11:10:55;6.55;;;3.70;;
24096;SDS011;12275;48.550;12.132;2023-05-07T11:13:44;4.05;;;3.65;;
24096;SDS011;12275;48.550;12.132;2023-05-07T11:18:50;6.47;;;3.55;;
24096;SDS011;12275;48.550;12.132;2023-05-07T11:21:35;3.40;;;3.20;;
24096;SDS011;12275;48.550;12.132;2023-05-07T11:24:01;4.25;;;3.50;;
24096;SDS011;12275;48.550;12.132;2023-05-07T11:26:29;4.15;;;3.53;;
24096;SDS011;12275;48.550;12.132;2023-05-07T11:28:56;2.70;;;2.50;;
24096;SDS011;12275;48.550;12.132;2023-05-07T11:31:23;4.88;;;2.95;;
24096;SDS011;12275;48.550;12.132;2023-05-07T11:33:50;5.88;;;3.42;;
24096;SDS011;12275;48.550;12.132;2023-05-07T11:36:17;2.95;;;2.75;;
24096;SDS011;12275;48.550;12.132;2023-05-07T11:38:44;4.32;;;3.55;;
24096;SDS011;12275;48.550;12.132;2023-05-07T11:41:10;3.10;;;2.80;;
24096;SDS011;12275;48.550;12.132;2023-05-07T11:43:36;4.03;;;3.00;;
24096;SDS011;12275;48.550;12.132;2023-05-07T11:46:08;2.30;;;2.20;;
24096;SDS011;12275;48.550;12.132;2023-05-07T11:48:34;3.47;;;2.90;;
24096;SDS011;12275;48.550;12.132;2023-05-07T11:51:01;3.50;;;2.83;;
24096;SDS011;12275;48.550;12.132;2023-05-07T11:53:28;6.28;;;2.60;;
24096;SDS011;12275;48.550;12.132;2023-05-07T11:56:00;4.60;;;2.90;;
24096;SDS011;12275;48.550;12.132;2023-05-07T11:58:26;3.00;;;2.72;;
24096;SDS011;12275;48.550;12.132;2023-05-07T12:00:53;2.67;;;2.47;;
24096;SDS011;12275;48.550;12.132;2023-05-07T12:03:19;2.55;;;2.40;;
24096;SDS011;12275;48.550;12.132;2023-05-07T12:05:46;3.92;;;2.00;;
24096;SDS011;12275;48.550;12.132;2023-05-07T12:08:15;2.45;;;1.80;;
24096;SDS011;12275;48.550;12.132;2023-05-07T12:10:41;2.42;;;2.22;;
24096;SDS011;12275;48.550;12.132;2023-05-07T12:13:28;2.97;;;1.88;;
24096;SDS011;12275;48.550;12.132;2023-05-07T12:15:55;2.28;;;2.10;;
24096;SDS011;12275;48.550;12.132;2023-05-07T12:18:22;2.45;;;2.22;;
24096;SDS011;12275;48.550;12.132;2023-05-07T12:20:48;3.47;;;2.30;;
24096;SDS011;12275;48.550;12.132;2023-05-07T12:23:15;2.90;;;2.42;;
24096;SDS011;12275;48.550;12.132;2023-05-07T12:25:42;5.68;;;4.00;;
24096;SDS011;12275;48.550;12.132;2023-05-07T12:28:15;2.92;;;2.10;;
24096;SDS011;12275;48.550;12.132;2023-05-07T12:30:45;5.80;;;2.72;;
24096;SDS011;12275;48.550;12.132;2023-05-07T12:33:11;2.72;;;2.53;;
24096;SDS011;12275;48.550;12.132;2023-05-07T12:35:38;3.55;;;2.30;;
24096;SDS011;12275;48.550;12.132;2023-05-07T12:38:08;2.35;;;2.20;;
24096;SDS011;12275;48.550;12.132;2023-05-07T12:40:45;2.42;;;2.30;;
24096;SDS011;12275;48.550;12.132;2023-05-07T12:43:18;4.53;;;3.90;;
24096;SDS011;12275;48.550;12.132;2023-05-07T12:45:45;3.92;;;2.45;;
24096;SDS011;12275;48.550;12.132;2023-05-07T12:48:12;2.50;;;2.30;;
24096;SDS011;12275;48.550;12.132;2023-05-07T12:50:38;2.30;;;2.10;;
24096;SDS011;12275;48.550;12.132;2023-05-07T12:53:05;4.28;;;2.97;;
24096;SDS011;12275;48.550;12.132;2023-05-07T12:55:31;3.85;;;2.55;;
24096;SDS011;12275;48.550;12.132;2023-05-07T12:58:00;2.72;;;2.30;;
24096;SDS011;12275;48.550;12.132;2023-05-07T13:00:36;3.15;;;2.47;;
24096;SDS011;12275;48.550;12.132;2023-05-07T13:03:03;2.33;;;2.10;;
24096;SDS011;12275;48.550;12.132;2023-05-07T13:05:31;2.20;;;2.05;;
24096;SDS011;12275;48.550;12.132;2023-05-07T13:07:57;2.00;;;1.83;;
24096;SDS011;12275;48.550;12.132;2023-05-07T13:10:23;3.97;;;2.22;;
24096;SDS011;12275;48.550;12.132;2023-05-07T13:12:50;2.45;;;2.25;;
24096;SDS011;12275;48.550;12.132;2023-05-07T13:15:16;2.53;;;2.33;;
24096;SDS011;12275;48.550;12.132;2023-05-07T13:17:42;12.57;;;9.88;;
24096;SDS011;12275;48.550;12.132;2023-05-07T13:20:11;3.28;;;2.70;;
24096;SDS011;12275;48.550;12.132;2023-05-07T13:22:38;5.25;;;2.67;;
24096;SDS011;12275;48.550;12.132;2023-05-07T13:25:04;2.67;;;2.47;;
24096;SDS011;12275;48.550;12.132;2023-05-07T13:27:30;3.63;;;2.58;;
24096;SDS011;12275;48.550;12.132;2023-05-07T13:29:56;1.80;;;1.70;;
24096;SDS011;12275;48.550;12.132;2023-05-07T13:32:22;2.10;;;1.90;;
24096;SDS011;12275;48.550;12.132;2023-05-07T13:34:48;5.68;;;1.90;;
24096;SDS011;12275;48.550;12.132;2023-05-07T13:37:14;3.60;;;3.25;;
24096;SDS011;12275;48.550;12.132;2023-05-07T13:39:40;3.97;;;3.63;;
24096;SDS011;12275;48.550;12.132;2023-05-07T13:42:06;5.13;;;2.83;;
24096;SDS011;12275;48.550;12.132;2023-05-07T13:44:32;2.67;;;2.45;;
24096;SDS011;12275;48.550;12.132;2023-05-07T13:46:58;2.15;;;2.03;;
24096;SDS011;12275;48.550;12.132;2023-05-07T13:49:25;2.55;;;2.35;;
24096;SDS011;12275;48.550;12.132;2023-05-07T13:51:51;2.70;;;2.50;;
24096;SDS011;12275;48.550;12.132;2023-05-07T13:54:17;2.78;;;2.58;;
24096;SDS011;12275;48.550;12.132;2023-05-07T13:56:43;4.53;;;2.38;;
24096;SDS011;12275;48.550;12.132;2023-05-07T13:59:09;3.08;;;2.78;;
24096;SDS011;12275;48.550;12.132;2023-05-07T14:01:35;4.85;;;3.17;;
24096;SDS011;12275;48.550;12.132;2023-05-07T14:04:01;5.20;;;4.70;;
24096;SDS011;12275;48.550;12.132;2023-05-07T14:06:27;2.45;;;2.35;;
24096;SDS011;12275;48.550;12.132;2023-05-07T14:08:53;4.13;;;2.15;;
24096;SDS011;12275;48.550;12.132;2023-05-07T14:11:19;2.15;;;2.05;;
24096;SDS011;12275;48.550;12.132;2023-05-07T14:13:46;2.10;;;2.00;;
24096;SDS011;12275;48.550;12.132;2023-05-07T14:16:12;2.05;;;1.85;;
24096;SDS011;12275;48.550;12.132;2023-05-07T14:18:38;2.55;;;2.22;;
24096;SDS011;12275;48.550;12.132;2023-05-07T14:21:04;6.07;;;4.57;;
24096;SDS011;12275;48.550;12.132;2023-05-07T14:23:34;3.92;;;2.10;;
24096;SDS011;12275;48.550;12.132;2023-05-07T14:26:00;3.40;;;2.60;;
24096;SDS011;12275;48.550;12.132;2023-05-07T14:28:27;2.78;;;2.53;;
24096;SDS011;12275;48.550;12.132;2023-05-07T14:30:52;2.35;;;2.00;;
24096;SDS011;12275;48.550;12.132;2023-05-07T14:33:19;2.22;;;2.10;;
24096;SDS011;12275;48.550;12.132;2023-05-07T14:35:45;3.00;;;2.20;;
24096;SDS011;12275;48.550;12.132;2023-05-07T14:38:13;2.30;;;2.10;;
24096;SDS011;12275;48.550;12.132;2023-05-07T14:40:40;2.50;;;2.00;;
24096;SDS011;12275;48.550;12.132;2023-05-07T14:43:05;2.65;;;2.03;;
24096;SDS011;12275;48.550;12.132;2023-05-07T14:45:31;4.18;;;2.20;;
24096;SDS011;12275;48.550;12.132;2023-05-07T14:47:57;1.95;;;1.77;;
24096;SDS011;12275;48.550;12.132;2023-05-07T14:50:23;3.05;;;2.10;;
24096;SDS011;12275;48.550;12.132;2023-05-07T14:52:49;1.90;;;1.70;;